Time;durP1;ratioP1;P1;durP2;ratioP2;P2;SDS_P1;SDS_P2;PMS_P1;PMS_P2;Temp;Humidity;BMP_temperature;BMP_pressure;BME280_temperature;BME280_humidity;BME280_pressure;Samples;Min_cycle;Max_cycle;Signal;HPM_P1;HPM_P2
2021/03/04 00:01:13;;;;;;;;;;;;;;;7.92;56.96;98685.86;1666910;86;20534;-73
2021/03/04 00:03:41;;;;;;;;;;;;;;;7.93;56.53;98676.91;1667029;86;20438;-73
2021/03/04 00:06:08;;;;;;;;;;;;;;;7.95;56.66;98676.81;1668181;86;21275;-74
2021/03/04 00:08:38;;;;;;;;;;;;;;;7.96;56.27;98674.06;1671779;86;20140;-73
2021/03/04 00:11:06;;;;;;;;;;;;;;;7.98;56.24;98669.08;1671732;86;20204;-73
2021/03/04 00:13:35;;;;;;;;;;;;;;;7.99;56.34;98664.13;1671826;86;20758;-73
2021/03/04 00:16:05;;;;;;;;;;;;;;;7.99;56.28;98670.33;1671950;86;20515;-73
2021/03/04 00:18:33;;;;;;;;;;;;;;;7.99;56.08;98650.76;1671830;86;21351;-72
2021/03/04 00:21:02;;;;;;;;;;;;;;;8.00;56.16;98660.52;1671797;86;20926;-72
2021/03/04 00:23:30;;;;;;;;;;;;;;;7.99;56.10;98656.96;1671779;86;20137;-73
2021/03/04 00:25:58;;;;;;;;;;;;;;;7.99;56.08;98650.76;1671846;86;20928;-73
2021/03/04 00:28:26;;;;;;;;;;;;;;;7.96;56.07;98637.95;1671801;86;20216;-73
2021/03/04 00:30:56;;;;;;;;;;;;;;;7.95;56.16;98640.23;1671808;86;21645;-72
2021/03/04 00:33:26;;;;;;;;;;;;;;;7.92;56.15;98635.05;1671602;86;20268;-72
2021/03/04 00:35:53;;;;;;;;;;;;;;;7.93;56.37;98647.48;1671784;86;20160;-71
2021/03/04 00:38:20;;;;;;;;;;;;;;;7.90;56.24;98635.61;1671828;86;20817;-73
2021/03/04 00:40:48;;;;;;;;;;;;;;;7.90;56.40;98636.95;1671799;86;20144;-73
2021/03/04 00:43:15;;;;;;;;;;;;;;;7.90;56.50;98636.95;1671847;86;21059;-73
2021/03/04 00:45:45;;;;;;;;;;;;;;;7.89;56.36;98638.37;1671697;86;20223;-72
2021/03/04 00:48:12;;;;;;;;;;;;;;;7.87;56.44;98637.11;1671795;86;20140;-73
2021/03/04 00:50:40;;;;;;;;;;;;;;;7.85;56.49;98637.68;1671737;86;20165;-73
2021/03/04 00:53:07;;;;;;;;;;;;;;;7.81;56.58;98636.11;1671857;86;20140;-72
2021/03/04 00:55:37;;;;;;;;;;;;;;;7.77;56.64;98630.52;1671751;86;20983;-73
2021/03/04 00:58:05;;;;;;;;;;;;;;;7.73;56.69;98631.66;1671717;86;20140;-73
2021/03/04 01:00:34;;;;;;;;;;;;;;;7.68;56.69;98636.36;1672030;86;20429;-73
2021/03/04 01:03:02;;;;;;;;;;;;;;;7.65;56.80;98629.39;1671928;86;20144;-73
2021/03/04 01:05:30;;;;;;;;;;;;;;;7.62;56.91;98632.23;1671973;86;20156;-73
2021/03/04 01:08:00;;;;;;;;;;;;;;;7.60;56.96;98620.28;1667427;86;21212;-72
2021/03/04 01:10:34;;;;;;;;;;;;;;;7.56;57.09;98622.72;1666911;86;20160;-73
2021/03/04 01:13:03;;;;;;;;;;;;;;;7.50;56.79;98608.34;1667232;86;20413;-73
2021/03/04 01:15:31;;;;;;;;;;;;;;;7.46;56.91;98605.46;1667070;86;21114;-73
2021/03/04 01:17:59;;;;;;;;;;;;;;;7.46;56.80;98604.58;1667101;86;20137;-73
2021/03/04 01:20:29;;;;;;;;;;;;;;;7.44;56.96;98599.31;1667063;86;22458;-72
2021/03/04 01:22:56;;;;;;;;;;;;;;;7.42;56.75;98593.19;1667037;86;20215;-73
2021/03/04 01:25:24;;;;;;;;;;;;;;;7.40;56.81;98593.27;1667167;86;20153;-73
2021/03/04 01:27:52;;;;;;;;;;;;;;;7.43;56.57;98586.91;1667032;86;20161;-73
2021/03/04 01:30:29;;;;;;;;;;;;;;;7.45;56.68;98578.81;1667031;86;20161;-73
2021/03/04 01:33:01;;;;;;;;;;;;;;;7.47;56.57;98574.24;1667395;85;22422;-73
2021/03/04 01:35:28;;;;;;;;;;;;;;;7.48;56.45;98573.31;1666938;86;20160;-72
2021/03/04 01:37:55;;;;;;;;;;;;;;;7.50;56.32;98576.27;1667100;86;20168;-73
2021/03/04 01:40:24;;;;;;;;;;;;;;;7.51;56.28;98578.48;1666963;86;20264;-73
2021/03/04 01:42:51;;;;;;;;;;;;;;;7.54;56.18;98568.48;1667017;86;20148;-73
2021/03/04 01:45:20;;;;;;;;;;;;;;;7.57;56.19;98551.43;1667040;86;21218;-73
2021/03/04 01:47:53;;;;;;;;;;;;;;;7.60;55.97;98557.46;1667152;86;20422;-73
2021/03/04 01:50:23;;;;;;;;;;;;;;;7.63;56.12;98538.19;1667057;86;20140;-74
2021/03/04 01:52:51;;;;;;;;;;;;;;;7.67;56.00;98539.27;1667004;86;20145;-73
2021/03/04 01:55:18;;;;;;;;;;;;;;;7.69;55.80;98537.84;1667056;86;20120;-73
2021/03/04 01:57:46;;;;;;;;;;;;;;;7.72;55.71;98541.69;1667076;86;21198;-72
2021/03/04 02:00:17;;;;;;;;;;;;;;;7.75;55.85;98533.50;1666979;86;20773;-72
2021/03/04 02:02:44;;;;;;;;;;;;;;;7.77;55.48;98535.60;1667081;86;20140;-74
2021/03/04 02:05:14;;;;;;;;;;;;;;;7.81;55.68;98522.46;1667036;86;20546;-73
2021/03/04 02:07:46;;;;;;;;;;;;;;;7.82;55.47;98522.86;1670283;86;20140;-72
2021/03/04 02:10:20;;;;;;;;;;;;;;;7.84;55.69;98516.94;1671802;86;21073;-72
2021/03/04 02:12:58;;;;;;;;;;;;;;;7.83;55.51;98512.53;1671884;86;20136;-73
2021/03/04 02:15:29;;;;;;;;;;;;;;;7.83;55.54;98512.53;1671944;86;20555;-72
2021/03/04 02:17:58;;;;;;;;;;;;;;;7.83;55.39;98516.55;1671831;86;20148;-72
2021/03/04 02:20:52;;;;;;;;;;;;;;;7.81;55.10;98508.23;1671878;86;20172;-73
2021/03/04 02:23:41;;;;;;;;;;;;;;;7.82;55.42;98509.95;1671993;86;21212;-74
2021/03/04 02:26:21;;;;;;;;;;;;;;;7.81;55.45;98510.91;1671841;86;20145;-72
2021/03/04 02:28:48;;;;;;;;;;;;;;;7.78;55.09;98508.78;1671837;86;20136;-72
2021/03/04 02:31:16;;;;;;;;;;;;;;;7.77;55.12;98504.85;1671900;86;20200;-72
2021/03/04 02:33:45;;;;;;;;;;;;;;;7.76;55.02;98500.47;1671990;86;20493;-72
2021/03/04 02:36:13;;;;;;;;;;;;;;;7.74;54.94;98499.67;1671861;86;21650;-73
2021/03/04 02:38:43;;;;;;;;;;;;;;;7.71;55.08;98503.41;1671816;86;20412;-73
2021/03/04 02:41:10;;;;;;;;;;;;;;;7.68;55.05;98496.01;1671885;86;20457;-73
2021/03/04 02:43:39;;;;;;;;;;;;;;;7.62;54.99;98500.39;1645301;86;20164;-73
2021/03/04 02:46:09;;;;;;;;;;;;;;;7.57;55.02;98501.50;1671981;86;20421;-74
2021/03/04 02:48:38;;;;;;;;;;;;;;;7.54;54.88;98500.33;1671938;86;21212;-73
2021/03/04 02:51:06;;;;;;;;;;;;;;;7.46;54.81;98494.55;1671758;86;20207;-74
2021/03/04 02:53:35;;;;;;;;;;;;;;;7.42;54.90;98488.48;1671843;86;20136;-73
2021/03/04 02:56:02;;;;;;;;;;;;;;;7.37;54.76;98487.03;1671841;86;20144;-73
2021/03/04 02:58:33;;;;;;;;;;;;;;;7.33;54.85;98493.48;1671878;86;20164;-72
2021/03/04 03:01:00;;;;;;;;;;;;;;;7.29;54.78;98481.25;1671783;86;22410;-73
2021/03/04 03:03:27;;;;;;;;;;;;;;;7.24;54.84;98481.02;1671854;86;20144;-73
2021/03/04 03:05:55;;;;;;;;;;;;;;;7.20;54.81;98485.27;1671853;86;20164;-73
2021/03/04 03:08:22;;;;;;;;;;;;;;;7.14;54.75;98481.15;1678556;85;21017;-73
2021/03/04 03:10:51;;;;;;;;;;;;;;;7.10;54.62;98484.06;1680199;85;20120;-73
2021/03/04 03:13:20;;;;;;;;;;;;;;;7.08;54.69;98480.59;1680179;85;22226;-73
2021/03/04 03:15:50;;;;;;;;;;;;;;;7.03;54.65;98480.39;1679987;85;20895;-73
2021/03/04 03:18:19;;;;;;;;;;;;;;;6.99;54.82;98468.13;1680188;85;20164;-73
2021/03/04 03:20:49;;;;;;;;;;;;;;;6.96;54.75;98468.30;1680094;85;20164;-73
2021/03/04 03:23:18;;;;;;;;;;;;;;;6.94;54.58;98465.34;1680107;85;20144;-72
2021/03/04 03:25:45;;;;;;;;;;;;;;;6.91;54.58;98466.83;1680118;85;21151;-73
2021/03/04 03:28:14;;;;;;;;;;;;;;;6.89;54.61;98473.59;1680109;85;20153;-73
2021/03/04 03:30:42;;;;;;;;;;;;;;;6.87;54.47;98465.66;1680007;85;20147;-73
2021/03/04 03:33:12;;;;;;;;;;;;;;;6.84;54.59;98459.14;1680127;85;20145;-73
2021/03/04 03:35:41;;;;;;;;;;;;;;;6.82;54.46;98469.02;1680127;85;20120;-73
2021/03/04 03:38:09;;;;;;;;;;;;;;;6.77;54.41;98460.41;1680115;85;21351;-73
2021/03/04 03:40:39;;;;;;;;;;;;;;;6.73;54.51;98460.16;1679953;85;20496;-73
2021/03/04 03:43:10;;;;;;;;;;;;;;;6.71;53.97;98461.20;1680154;85;20171;-73
2021/03/04 03:45:41;;;;;;;;;;;;;;;6.71;53.74;98460.72;1679415;85;20409;-72
2021/03/04 03:48:15;;;;;;;;;;;;;;;6.74;54.03;98465.05;1680146;85;20164;-72
2021/03/04 03:50:45;;;;;;;;;;;;;;;6.77;53.59;98457.73;1680130;85;21386;-73
2021/03/04 03:53:15;;;;;;;;;;;;;;;6.81;53.36;98459.31;1680071;85;20136;-73
2021/03/04 03:55:49;;;;;;;;;;;;;;;6.86;53.08;98457.25;1680057;85;20164;-73
2021/03/04 03:58:21;;;;;;;;;;;;;;;6.90;53.12;98451.75;1680095;85;20135;-72
2021/03/04 04:00:49;;;;;;;;;;;;;;;6.93;52.76;98442.23;1679825;85;20176;-72
2021/03/04 04:03:18;;;;;;;;;;;;;;;6.95;52.72;98433.66;1679946;85;39379;-72
2021/03/04 04:05:48;;;;;;;;;;;;;;;6.98;52.57;98434.83;1680092;85;20143;-73
2021/03/04 04:08:18;;;;;;;;;;;;;;;7.00;52.57;98436.94;1679933;85;20215;-73
2021/03/04 04:10:48;;;;;;;;;;;;;;;7.01;52.40;98431.52;1680041;85;20160;-73
2021/03/04 04:13:19;;;;;;;;;;;;;;;7.02;52.50;98423.91;1680145;85;20165;-73
2021/03/04 04:15:46;;;;;;;;;;;;;;;7.00;52.40;98419.12;1680159;85;21224;-72
2021/03/04 04:18:15;;;;;;;;;;;;;;;6.99;52.12;98428.08;1680175;85;20136;-72
2021/03/04 04:20:46;;;;;;;;;;;;;;;6.99;52.34;98429.89;1679927;85;20172;-73
2021/03/04 04:23:14;;;;;;;;;;;;;;;6.96;52.01;98418.04;1680162;85;20140;-73
2021/03/04 04:25:48;;;;;;;;;;;;;;;6.97;51.92;98421.08;1653222;85;20156;-73
2021/03/04 04:28:17;;;;;;;;;;;;;;;6.95;51.68;98420.31;1680164;85;21383;-74
2021/03/04 04:30:46;;;;;;;;;;;;;;;6.94;51.79;98419.94;1679984;85;20946;-74
2021/03/04 04:33:14;;;;;;;;;;;;;;;6.91;51.82;98417.44;1680116;85;20156;-73
2021/03/04 04:35:43;;;;;;;;;;;;;;;6.87;51.40;98418.94;1680121;85;20530;-72
2021/03/04 04:38:12;;;;;;;;;;;;;;;6.87;51.41;98422.94;1680122;85;20484;-74
2021/03/04 04:40:39;;;;;;;;;;;;;;;6.86;51.66;98417.68;1680033;85;21949;-73
2021/03/04 04:43:08;;;;;;;;;;;;;;;6.82;51.59;98408.95;1680065;85;20412;-73
2021/03/04 04:45:35;;;;;;;;;;;;;;;6.79;51.70;98415.79;1680073;85;20464;-73
2021/03/04 04:48:03;;;;;;;;;;;;;;;6.76;51.40;98411.95;1680152;85;20488;-73
2021/03/04 04:50:31;;;;;;;;;;;;;;;6.73;51.50;98412.11;1680049;85;20140;-73
2021/03/04 04:53:00;;;;;;;;;;;;;;;6.71;51.48;98406.00;1680110;85;21436;-73
2021/03/04 04:55:27;;;;;;;;;;;;;;;6.67;51.81;98403.98;1680053;85;20337;-73
2021/03/04 04:57:57;;;;;;;;;;;;;;;6.63;51.90;98402.89;1680153;85;20139;-73
2021/03/04 05:00:25;;;;;;;;;;;;;;;6.55;52.17;98399.29;1680045;85;20496;-74
2021/03/04 05:02:52;;;;;;;;;;;;;;;6.47;52.28;98393.02;1680091;85;20160;-74
2021/03/04 05:05:20;;;;;;;;;;;;;;;6.38;52.46;98386.83;1680113;85;21386;-73
2021/03/04 05:07:47;;;;;;;;;;;;;;;6.29;52.93;98385.97;1679905;85;20160;-73
2021/03/04 05:10:15;;;;;;;;;;;;;;;6.21;53.18;98385.07;1680112;85;20140;-73
2021/03/04 05:12:45;;;;;;;;;;;;;;;6.10;53.53;98381.62;1680094;85;20168;-73
2021/03/04 05:15:13;;;;;;;;;;;;;;;6.03;53.88;98381.53;1680047;85;20140;-74
2021/03/04 05:17:40;;;;;;;;;;;;;;;5.96;54.15;98378.77;1680072;85;21390;-74
2021/03/04 05:20:10;;;;;;;;;;;;;;;5.91;54.05;98376.78;1680041;85;21049;-73
2021/03/04 05:22:38;;;;;;;;;;;;;;;5.91;54.13;98378.11;1680095;85;20120;-73
2021/03/04 05:25:09;;;;;;;;;;;;;;;5.92;54.19;98369.19;1680028;85;20165;-73
2021/03/04 05:27:38;;;;;;;;;;;;;;;5.95;54.20;98365.88;1680152;85;20513;-73
2021/03/04 05:30:06;;;;;;;;;;;;;;;5.99;54.14;98366.61;1680085;85;21261;-74
2021/03/04 05:32:34;;;;;;;;;;;;;;;6.04;53.94;98367.27;1680064;85;20481;-74
2021/03/04 05:35:04;;;;;;;;;;;;;;;6.11;54.05;98373.98;1680057;85;20140;-74
2021/03/04 05:37:31;;;;;;;;;;;;;;;6.17;54.26;98373.30;1680174;85;20492;-74
2021/03/04 05:39:58;;;;;;;;;;;;;;;6.22;54.20;98369.44;1680135;85;20144;-73
2021/03/04 05:42:30;;;;;;;;;;;;;;;6.27;54.32;98370.53;1680140;85;21818;-73
2021/03/04 05:44:57;;;;;;;;;;;;;;;6.30;54.20;98366.38;1680107;85;20151;-73
2021/03/04 05:47:25;;;;;;;;;;;;;;;6.34;54.18;98363.95;1680156;85;20140;-73
2021/03/04 05:50:03;;;;;;;;;;;;;;;6.38;54.16;98369.49;1680153;85;20156;-74
2021/03/04 05:52:34;;;;;;;;;;;;;;;6.44;54.28;98370.50;1680336;85;20171;-73
2021/03/04 05:55:02;;;;;;;;;;;;;;;6.51;54.07;98361.24;1679771;85;22093;-73
2021/03/04 05:57:30;;;;;;;;;;;;;;;6.59;54.14;98362.62;1680178;85;20139;-73
2021/03/04 05:59:59;;;;;;;;;;;;;;;6.66;54.03;98364.02;1680093;85;20156;-74
2021/03/04 06:02:30;;;;;;;;;;;;;;;6.73;54.03;98360.06;1680111;85;20160;-74
2021/03/04 06:04:58;;;;;;;;;;;;;;;6.80;53.80;98353.94;1680321;85;20512;-74
2021/03/04 06:07:27;;;;;;;;;;;;;;;6.88;53.58;98348.55;1679041;85;20199;-73
2021/03/04 06:09:58;;;;;;;;;;;;;;;6.95;53.41;98346.87;1666939;86;20145;-75
2021/03/04 06:12:30;;;;;;;;;;;;;;;7.04;53.31;98347.70;1667201;86;20145;-74
2021/03/04 06:15:00;;;;;;;;;;;;;;;7.10;52.92;98343.84;1666981;86;20231;-81
2021/03/04 06:17:30;;;;;;;;;;;;;;;7.19;52.72;98339.29;1666381;86;20141;-78
2021/03/04 06:20:03;;;;;;;;;;;;;;;7.27;52.25;98338.41;1666885;86;21258;-79
2021/03/04 06:22:34;;;;;;;;;;;;;;;7.36;52.10;98335.22;1667186;86;20121;-76
2021/03/04 06:25:09;;;;;;;;;;;;;;;7.51;51.83;98336.12;1667199;86;20148;-77
2021/03/04 06:27:40;;;;;;;;;;;;;;;7.66;51.54;98320.14;1667308;86;20866;-77
2021/03/04 06:30:15;;;;;;;;;;;;;;;7.82;50.77;98321.43;1667717;85;20533;-79
2021/03/04 06:32:59;;;;;;;;;;;;;;;8.02;50.47;98332.28;1667890;86;22356;-79
2021/03/04 06:35:38;;;;;;;;;;;;;;;8.20;49.78;98325.83;1667550;86;20140;-78
2021/03/04 06:38:14;;;;;;;;;;;;;;;8.41;49.41;98317.44;1667525;86;20441;-78
2021/03/04 06:40:42;;;;;;;;;;;;;;;8.61;48.79;98319.77;1667372;85;20156;-78
2021/03/04 06:43:21;;;;;;;;;;;;;;;8.82;48.25;98315.34;1667337;86;20140;-79
2021/03/04 06:46:05;;;;;;;;;;;;;;;9.02;47.42;98310.06;1667474;86;21150;-79
2021/03/04 06:48:34;;;;;;;;;;;;;;;9.19;47.33;98308.95;1667144;86;20445;-80
2021/03/04 06:51:03;;;;;;;;;;;;;;;9.36;46.68;98312.72;1667109;86;20144;-80
2021/03/04 06:53:31;;;;;;;;;;;;;;;9.53;46.22;98316.13;1667125;86;20137;-75
2021/03/04 06:56:06;;;;;;;;;;;;;;;9.66;45.60;98310.30;1667136;86;20140;-78
2021/03/04 06:58:38;;;;;;;;;;;;;;;9.84;45.74;98318.07;1667083;86;21216;-85
2021/03/04 07:01:14;;;;;;;;;;;;;;;9.99;45.12;98317.03;1666961;86;20165;-69
2021/03/04 07:03:49;;;;;;;;;;;;;;;10.18;44.66;98314.44;1667034;86;20120;-74
2021/03/04 07:06:21;;;;;;;;;;;;;;;10.30;43.73;98300.17;1665227;86;20343;-83
2021/03/04 07:08:51;;;;;;;;;;;;;;;10.44;43.22;98297.89;1669584;86;20157;-73
2021/03/04 07:11:21;;;;;;;;;;;;;;;10.57;42.84;98301.91;1671854;86;22290;-75
2021/03/04 07:13:52;;;;;;;;;;;;;;;10.72;42.98;98288.73;1671848;86;20779;-75
2021/03/04 07:16:26;;;;;;;;;;;;;;;10.83;42.47;98298.22;1671881;86;20149;-70
2021/03/04 07:18:56;;;;;;;;;;;;;;;10.93;42.43;98294.88;1671771;86;20164;-77
2021/03/04 07:21:39;;;;;;;;;;;;;;;11.01;42.42;98293.83;1671995;86;20472;-77
2021/03/04 07:24:09;;;;;;;;;;;;;;;11.09;41.76;98295.46;1671920;86;21379;-75
2021/03/04 07:26:38;;;;;;;;;;;;;;;11.16;41.79;98290.02;1671915;86;20908;-76
2021/03/04 07:29:13;;;;;;;;;;;;;;;11.23;41.99;98284.19;1671839;86;20144;-75
2021/03/04 07:31:42;;;;;;;;;;;;;;;11.26;41.91;98290.66;1671966;86;20925;-76
2021/03/04 07:34:15;;;;;;;;;;;;;;;11.25;41.86;98294.34;1671916;86;20124;-75
2021/03/04 07:36:51;;;;;;;;;;;;;;;11.26;41.53;98291.53;1645363;86;21053;-75
2021/03/04 07:39:34;;;;;;;;;;;;;;;11.29;41.46;98284.59;1671857;86;20140;-69
2021/03/04 07:42:20;;;;;;;;;;;;;;;11.27;41.36;98276.25;1671944;86;20173;-69
2021/03/04 07:44:52;;;;;;;;;;;;;;;11.30;41.49;98276.03;1671912;86;20140;-82
2021/03/04 07:47:26;;;;;;;;;;;;;;;11.29;41.97;98272.95;1671918;86;20125;-74
2021/03/04 07:49:57;;;;;;;;;;;;;;;11.29;41.33;98271.61;1671959;86;21210;-83
2021/03/04 07:52:25;;;;;;;;;;;;;;;11.29;41.61;98275.64;1671785;86;20157;-65
2021/03/04 07:54:55;;;;;;;;;;;;;;;11.27;42.22;98266.84;1671853;86;20120;-81
2021/03/04 07:57:27;;;;;;;;;;;;;;;11.25;42.02;98269.64;1671801;86;20144;-78
2021/03/04 07:59:57;;;;;;;;;;;;;;;11.23;42.52;98260.00;1671824;86;20160;-74
2021/03/04 08:02:34;;;;;;;;;;;;;;;11.20;42.62;98264.61;1671934;86;22126;-74
2021/03/04 08:05:10;;;;;;;;;;;;;;;11.26;42.02;98257.05;1671802;86;20136;-72
2021/03/04 08:07:46;;;;;;;;;;;;;;;11.32;41.23;98251.22;1671891;86;20489;-72
2021/03/04 08:10:16;;;;;;;;;;;;;;;11.47;41.52;98243.34;1666986;86;20148;-72
2021/03/04 08:12:51;;;;;;;;;;;;;;;11.67;41.29;98237.81;1667027;86;20148;-76
2021/03/04 08:15:21;;;;;;;;;;;;;;;11.83;39.55;98230.75;1667089;86;21379;-80
2021/03/04 08:17:49;;;;;;;;;;;;;;;12.00;39.63;98229.95;1667208;86;20129;-81
2021/03/04 08:20:20;;;;;;;;;;;;;;;12.18;39.69;98233.91;1667118;86;20225;-82
2021/03/04 08:22:52;;;;;;;;;;;;;;;12.34;39.42;98228.66;1667186;86;20140;-81
2021/03/04 08:25:23;;;;;;;;;;;;;;;12.52;39.46;98225.85;1667153;86;20148;-81
2021/03/04 08:27:54;;;;;;;;;;;;;;;12.67;38.08;98221.55;1667047;86;21174;-80
2021/03/04 08:30:41;;;;;;;;;;;;;;;12.81;37.69;98218.09;1667999;86;20153;-80
2021/03/04 08:33:15;;;;;;;;;;;;;;;12.96;38.25;98229.47;1667997;86;20156;-81
2021/03/04 08:35:45;;;;;;;;;;;;;;;13.12;37.52;98229.56;1666674;86;20306;-82
2021/03/04 08:38:17;;;;;;;;;;;;;;;13.18;36.68;98222.29;1667094;86;20136;-81
2021/03/04 08:40:47;;;;;;;;;;;;;;;13.15;36.89;98226.63;1666696;86;21216;-82
2021/03/04 08:43:17;;;;;;;;;;;;;;;13.11;36.58;98226.50;1667037;86;20181;-79
2021/03/04 08:45:50;;;;;;;;;;;;;;;13.05;36.38;98230.54;1667075;86;20288;-82
2021/03/04 08:48:21;;;;;;;;;;;;;;;12.96;36.51;98224.55;1667009;86;20152;-83
2021/03/04 08:50:55;;;;;;;;;;;;;;;12.91;36.62;98231.70;1667013;86;20501;-80
2021/03/04 08:53:30;;;;;;;;;;;;;;;12.83;36.25;98235.48;1667045;86;21207;-80
2021/03/04 08:56:00;;;;;;;;;;;;;;;12.77;37.15;98233.28;1667013;86;20157;-82
2021/03/04 08:58:33;;;;;;;;;;;;;;;12.76;36.97;98236.48;1667244;86;20157;-83
2021/03/04 09:01:03;;;;;;;;;;;;;;;12.78;36.98;98226.92;1667013;86;20136;-81
2021/03/04 09:03:35;;;;;;;;;;;;;;;12.79;38.07;98226.80;1667042;86;20160;-82
2021/03/04 09:06:06;;;;;;;;;;;;;;;12.89;37.77;98217.47;1667116;86;21302;-82
2021/03/04 09:08:40;;;;;;;;;;;;;;;12.96;37.25;98218.69;1667082;86;20193;-80
2021/03/04 09:11:32;;;;;;;;;;;;;;;13.06;36.74;98217.94;1667154;86;20199;-81
2021/03/04 09:14:09;;;;;;;;;;;;;;;13.05;35.92;98212.17;1667095;86;20870;-81
2021/03/04 09:16:46;;;;;;;;;;;;;;;13.08;36.54;98221.36;1667156;86;20418;-81
2021/03/04 09:19:39;;;;;;;;;;;;;;;13.04;36.35;98216.72;1667043;86;21214;-79
2021/03/04 09:22:11;;;;;;;;;;;;;;;12.95;36.40;98210.73;1667190;86;20165;-81
2021/03/04 09:24:44;;;;;;;;;;;;;;;12.99;36.65;98207.66;1667176;86;20144;-80
2021/03/04 09:27:13;;;;;;;;;;;;;;;12.86;36.01;98205.59;1667157;86;20870;-82
2021/03/04 09:29:42;;;;;;;;;;;;;;;12.78;36.36;98202.17;1667103;86;20144;-82
2021/03/04 09:32:10;;;;;;;;;;;;;;;12.69;37.14;98203.41;1667160;86;22231;-80
2021/03/04 09:34:40;;;;;;;;;;;;;;;12.58;36.67;98200.23;1667016;86;20633;-80
2021/03/04 09:37:13;;;;;;;;;;;;;;;12.53;37.65;98202.45;1668531;85;20149;-81
2021/03/04 09:39:47;;;;;;;;;;;;;;;12.48;37.48;98195.59;1667127;86;20917;-82
2021/03/04 09:42:17;;;;;;;;;;;;;;;12.45;38.08;98189.60;1667249;86;20144;-81
2021/03/04 09:44:54;;;;;;;;;;;;;;;12.45;38.20;98188.25;1668584;85;21899;-81
2021/03/04 09:47:26;;;;;;;;;;;;;;;12.41;38.56;98185.46;1646887;86;20258;-80
2021/03/04 09:49:55;;;;;;;;;;;;;;;12.41;38.28;98178.73;1667150;86;20157;-81
2021/03/04 09:52:29;;;;;;;;;;;;;;;12.41;38.64;98179.57;1667173;86;20120;-83
2021/03/04 09:55:11;;;;;;;;;;;;;;;12.43;38.74;98176.26;1667170;86;20188;-82
2021/03/04 09:57:42;;;;;;;;;;;;;;;12.38;38.45;98173.58;1667141;86;21470;-81
2021/03/04 10:00:24;;;;;;;;;;;;;;;12.37;39.47;98172.70;1667077;86;20366;-81
2021/03/04 10:02:52;;;;;;;;;;;;;;;12.40;39.49;98171.62;1668549;86;20157;-79
2021/03/04 10:05:22;;;;;;;;;;;;;;;12.39;38.68;98168.08;1667198;86;20905;-80
2021/03/04 10:07:56;;;;;;;;;;;;;;;12.41;38.52;98167.95;1667260;86;20157;-81
2021/03/04 10:10:21;;;;;;;;;;;;;;;12.42;38.27;98166.48;1670659;86;21574;-80
2021/03/04 10:12:54;;;;;;;;;;;;;;;12.42;38.67;98164.26;1671953;86;20152;-81
2021/03/04 10:15:30;;;;;;;;;;;;;;;12.41;39.19;98162.56;1672002;86;20140;-82
2021/03/04 10:18:10;;;;;;;;;;;;;;;12.42;37.95;98166.48;1672035;86;20913;-81
2021/03/04 10:20:44;;;;;;;;;;;;;;;12.39;38.39;98152.38;1672025;86;20161;-82
2021/03/04 10:23:14;;;;;;;;;;;;;;;12.41;38.34;98154.48;1671985;86;21390;-81
2021/03/04 10:25:46;;;;;;;;;;;;;;;12.37;39.23;98154.35;1671901;86;20789;-80
2021/03/04 10:28:14;;;;;;;;;;;;;;;12.36;38.29;98152.16;1672120;86;20434;-80
2021/03/04 10:30:43;;;;;;;;;;;;;;;12.38;38.49;98146.66;1671927;86;20159;-80
2021/03/04 10:33:17;;;;;;;;;;;;;;;12.42;38.03;98135.98;1671908;86;20208;-80
2021/03/04 10:35:45;;;;;;;;;;;;;;;12.47;38.01;98128.37;1672018;86;21492;-82
2021/03/04 10:38:13;;;;;;;;;;;;;;;12.53;38.16;98129.22;1672005;86;20438;-80
2021/03/04 10:40:43;;;;;;;;;;;;;;;12.60;37.86;98114.78;1672083;86;20161;-82
2021/03/04 10:43:11;;;;;;;;;;;;;;;12.68;38.35;98120.89;1671988;86;20157;-81
2021/03/04 10:45:40;;;;;;;;;;;;;;;12.69;37.70;98109.11;1671951;86;20152;-81
2021/03/04 10:48:08;;;;;;;;;;;;;;;12.74;37.28;98105.06;1672032;86;21220;-80
2021/03/04 10:50:37;;;;;;;;;;;;;;;12.75;36.38;98100.02;1671849;86;20156;-81
2021/03/04 10:53:05;;;;;;;;;;;;;;;12.73;36.89;98103.84;1672016;86;20120;-79
2021/03/04 10:55:36;;;;;;;;;;;;;;;12.72;37.48;98100.27;1671698;86;20144;-80
2021/03/04 10:58:05;;;;;;;;;;;;;;;12.74;37.69;98105.53;1672029;86;20164;-79
2021/03/04 11:00:35;;;;;;;;;;;;;;;12.76;37.76;98103.59;1672003;86;21275;-78
2021/03/04 11:03:06;;;;;;;;;;;;;;;12.76;37.71;98092.80;1672121;86;20136;-80
2021/03/04 11:05:35;;;;;;;;;;;;;;;12.76;37.74;98086.91;1672078;86;20141;-79
2021/03/04 11:08:05;;;;;;;;;;;;;;;12.72;37.41;98092.18;1672053;86;20996;-81
2021/03/04 11:10:37;;;;;;;;;;;;;;;12.72;38.13;98080.56;1678040;85;20139;-76
2021/03/04 11:13:05;;;;;;;;;;;;;;;12.73;37.71;98068.80;1680367;85;21215;-73
2021/03/04 11:15:37;;;;;;;;;;;;;;;12.73;37.91;98058.03;1680190;85;20183;-84
2021/03/04 11:18:06;;;;;;;;;;;;;;;12.72;37.34;98053.61;1680382;85;20160;-84
2021/03/04 11:20:35;;;;;;;;;;;;;;;12.73;37.50;98063.42;1680300;85;20143;-82
2021/03/04 11:23:02;;;;;;;;;;;;;;;12.75;37.99;98050.66;1680408;85;20160;-81
2021/03/04 11:25:31;;;;;;;;;;;;;;;12.76;36.71;98055.08;1680301;85;21875;-81
2021/03/04 11:28:08;;;;;;;;;;;;;;;12.78;37.70;98050.41;1680455;85;20160;-82
2021/03/04 11:30:38;;;;;;;;;;;;;;;12.81;37.61;98042.06;1680500;85;20195;-82
2021/03/04 11:33:10;;;;;;;;;;;;;;;12.78;36.89;98032.38;1652854;85;20164;-81
2021/03/04 11:35:38;;;;;;;;;;;;;;;12.82;37.53;98031.66;1680617;85;20500;-81
2021/03/04 11:38:07;;;;;;;;;;;;;;;12.84;37.95;98025.64;1680752;85;22235;-80
2021/03/04 11:40:39;;;;;;;;;;;;;;;12.86;37.83;98012.88;1678019;85;20180;-81
2021/03/04 11:43:11;;;;;;;;;;;;;;;12.91;37.38;98009.32;1680504;85;20124;-81
2021/03/04 11:45:39;;;;;;;;;;;;;;;12.99;38.19;98001.90;1680295;85;20144;-81
2021/03/04 11:48:08;;;;;;;;;;;;;;;13.08;38.11;98002.96;1680434;85;20204;-82
2021/03/04 11:50:38;;;;;;;;;;;;;;;13.15;37.06;97985.28;1680272;85;21752;-82
2021/03/04 11:53:08;;;;;;;;;;;;;;;13.23;37.84;97993.55;1680304;85;20140;-80
2021/03/04 11:55:36;;;;;;;;;;;;;;;13.31;37.76;97981.59;1680397;85;20157;-80
2021/03/04 11:58:04;;;;;;;;;;;;;;;13.38;37.03;97976.55;1680253;85;20143;-82
2021/03/04 12:00:35;;;;;;;;;;;;;;;13.44;36.23;97973.81;1680463;85;20120;-81
2021/03/04 12:03:07;;;;;;;;;;;;;;;13.46;35.31;97969.13;1680471;85;20535;-81
2021/03/04 12:05:34;;;;;;;;;;;;;;;13.50;35.79;97974.63;1680273;85;20178;-81
2021/03/04 12:08:08;;;;;;;;;;;;;;;13.53;36.30;97966.27;1680433;85;20164;-81
2021/03/04 12:10:37;;;;;;;;;;;;;;;13.55;35.38;97963.77;1672132;85;20133;-82
2021/03/04 12:13:06;;;;;;;;;;;;;;;13.61;35.72;97969.12;1667264;86;20168;-83
2021/03/04 12:15:37;;;;;;;;;;;;;;;13.62;35.23;97964.58;1668522;86;22248;-81
2021/03/04 12:18:05;;;;;;;;;;;;;;;13.65;36.27;97966.50;1667094;86;20505;-83
2021/03/04 12:20:36;;;;;;;;;;;;;;;13.66;35.01;97964.17;1668365;86;20144;-81
2021/03/04 12:23:06;;;;;;;;;;;;;;;13.71;35.56;97960.56;1667239;86;20141;-82
2021/03/04 12:25:36;;;;;;;;;;;;;;;13.74;35.83;97957.59;1667195;86;20144;-82
2021/03/04 12:28:07;;;;;;;;;;;;;;;13.78;35.46;97954.61;1667248;86;22300;-82
2021/03/04 12:30:39;;;;;;;;;;;;;;;13.79;35.39;97950.94;1667864;84;20187;-81
2021/03/04 12:33:08;;;;;;;;;;;;;;;13.80;35.53;97937.30;1667087;86;20182;-83
2021/03/04 12:35:39;;;;;;;;;;;;;;;13.84;35.05;97944.62;1667097;86;20161;-83
2021/03/04 12:38:12;;;;;;;;;;;;;;;13.83;35.07;97938.38;1667092;86;20120;-82
2021/03/04 12:40:42;;;;;;;;;;;;;;;13.87;34.69;97938.47;1667442;86;22047;-78
2021/03/04 12:43:09;;;;;;;;;;;;;;;13.85;34.62;97936.37;1667926;86;20198;-82
2021/03/04 12:45:40;;;;;;;;;;;;;;;13.85;35.00;97930.98;1667345;86;20128;-81
2021/03/04 12:48:12;;;;;;;;;;;;;;;13.83;35.12;97940.23;1669171;86;20913;-80
2021/03/04 12:50:41;;;;;;;;;;;;;;;13.82;35.56;97945.27;1667590;86;20161;-78
2021/03/04 12:53:09;;;;;;;;;;;;;;;13.78;34.76;97934.37;1667233;86;21165;-81
2021/03/04 12:55:45;;;;;;;;;;;;;;;13.78;35.09;97937.07;1667220;86;20192;-80
2021/03/04 12:58:18;;;;;;;;;;;;;;;13.72;34.97;97929.05;1669089;86;20161;-82
2021/03/04 13:00:52;;;;;;;;;;;;;;;13.69;35.68;97923.42;1675933;85;20151;-81
2021/03/04 13:03:23;;;;;;;;;;;;;;;13.68;35.36;97917.65;1660511;85;20151;-81
2021/03/04 13:05:54;;;;;;;;;;;;;;;13.68;35.58;97925.75;1675076;85;21380;-81
2021/03/04 13:08:22;;;;;;;;;;;;;;;13.68;35.14;97920.35;1674271;85;20552;-81
2021/03/04 13:10:50;;;;;;;;;;;;;;;13.68;35.46;97923.05;1674102;85;20245;-81